sensor_id;sensor_type;location;lat;lon;timestamp;P1;durP1;ratioP1;P2;durP2;ratioP2
46028;SDS011;31763;48.180;7.904;2024-01-15T00:00:21;35.47;;;13.67;;
46028;SDS011;31763;48.180;7.904;2024-01-15T00:02:48;39.27;;;13.20;;
46028;SDS011;31763;48.180;7.904;2024-01-15T00:05:15;31.93;;;12.37;;
46028;SDS011;31763;48.180;7.904;2024-01-15T00:07:42;31.73;;;11.67;;
46028;SDS011;31763;48.180;7.904;2024-01-15T00:10:09;35.60;;;12.80;;
46028;SDS011;31763;48.180;7.904;2024-01-15T00:12:36;38.03;;;11.40;;
46028;SDS011;31763;48.180;7.904;2024-01-15T00:15:03;31.80;;;11.87;;
46028;SDS011;31763;48.180;7.904;2024-01-15T00:17:31;37.43;;;13.10;;
46028;SDS011;31763;48.180;7.904;2024-01-15T00:19:58;37.53;;;13.63;;
46028;SDS011;31763;48.180;7.904;2024-01-15T00:22:25;36.97;;;13.00;;
46028;SDS011;31763;48.180;7.904;2024-01-15T00:24:53;36.33;;;13.60;;
46028;SDS011;31763;48.180;7.904;2024-01-15T00:27:20;33.97;;;13.20;;
46028;SDS011;31763;48.180;7.904;2024-01-15T00:29:48;37.63;;;13.97;;
46028;SDS011;31763;48.180;7.904;2024-01-15T00:32:16;39.77;;;13.67;;
46028;SDS011;31763;48.180;7.904;2024-01-15T00:34:43;34.30;;;12.37;;
46028;SDS011;31763;48.180;7.904;2024-01-15T00:37:10;35.97;;;13.87;;
46028;SDS011;31763;48.180;7.904;2024-01-15T00:39:37;35.37;;;13.87;;
46028;SDS011;31763;48.180;7.904;2024-01-15T00:42:04;36.40;;;13.87;;
46028;SDS011;31763;48.180;7.904;2024-01-15T00:44:31;38.17;;;13.20;;
46028;SDS011;31763;48.180;7.904;2024-01-15T00:46:58;37.03;;;14.20;;
46028;SDS011;31763;48.180;7.904;2024-01-15T00:49:26;41.80;;;14.97;;
46028;SDS011;31763;48.180;7.904;2024-01-15T00:51:54;37.93;;;12.93;;
46028;SDS011;31763;48.180;7.904;2024-01-15T00:54:20;44.13;;;15.43;;
46028;SDS011;31763;48.180;7.904;2024-01-15T00:56:47;46.60;;;15.37;;
46028;SDS011;31763;48.180;7.904;2024-01-15T00:59:14;44.47;;;16.90;;
46028;SDS011;31763;48.180;7.904;2024-01-15T01:01:42;41.97;;;15.03;;
46028;SDS011;31763;48.180;7.904;2024-01-15T01:04:10;44.57;;;15.70;;
46028;SDS011;31763;48.180;7.904;2024-01-15T01:06:37;37.10;;;13.13;;
46028;SDS011;31763;48.180;7.904;2024-01-15T01:09:05;45.57;;;16.57;;
46028;SDS011;31763;48.180;7.904;2024-01-15T01:11:32;42.77;;;16.60;;
46028;SDS011;31763;48.180;7.904;2024-01-15T01:13:59;47.63;;;17.07;;
46028;SDS011;31763;48.180;7.904;2024-01-15T01:16:27;43.53;;;15.37;;
46028;SDS011;31763;48.180;7.904;2024-01-15T01:18:53;41.13;;;14.87;;
46028;SDS011;31763;48.180;7.904;2024-01-15T01:21:21;38.47;;;15.77;;
46028;SDS011;31763;48.180;7.904;2024-01-15T01:23:48;42.97;;;16.37;;
46028;SDS011;31763;48.180;7.904;2024-01-15T01:26:15;41.63;;;14.90;;
46028;SDS011;31763;48.180;7.904;2024-01-15T01:28:43;43.40;;;14.57;;
46028;SDS011;31763;48.180;7.904;2024-01-15T01:31:10;49.63;;;17.37;;
46028;SDS011;31763;48.180;7.904;2024-01-15T01:33:38;42.33;;;15.80;;
46028;SDS011;31763;48.180;7.904;2024-01-15T01:36:07;34.83;;;12.70;;
46028;SDS011;31763;48.180;7.904;2024-01-15T01:38:36;31.50;;;12.30;;
46028;SDS011;31763;48.180;7.904;2024-01-15T01:41:03;40.47;;;13.70;;
46028;SDS011;31763;48.180;7.904;2024-01-15T01:43:30;42.77;;;15.50;;
46028;SDS011;31763;48.180;7.904;2024-01-15T01:45:57;46.73;;;17.00;;
46028;SDS011;31763;48.180;7.904;2024-01-15T01:48:26;46.30;;;15.10;;
46028;SDS011;31763;48.180;7.904;2024-01-15T01:50:55;47.13;;;16.90;;
46028;SDS011;31763;48.180;7.904;2024-01-15T01:53:24;45.63;;;15.43;;
46028;SDS011;31763;48.180;7.904;2024-01-15T01:55:53;36.20;;;14.27;;
46028;SDS011;31763;48.180;7.904;2024-01-15T01:58:22;38.43;;;12.97;;
46028;SDS011;31763;48.180;7.904;2024-01-15T02:00:49;43.50;;;14.23;;
46028;SDS011;31763;48.180;7.904;2024-01-15T02:03:16;49.10;;;16.90;;
46028;SDS011;31763;48.180;7.904;2024-01-15T02:05:43;46.73;;;14.67;;
46028;SDS011;31763;48.180;7.904;2024-01-15T02:08:13;41.13;;;13.87;;
46028;SDS011;31763;48.180;7.904;2024-01-15T02:10:39;52.40;;;20.07;;
46028;SDS011;31763;48.180;7.904;2024-01-15T02:13:06;50.93;;;16.30;;
46028;SDS011;31763;48.180;7.904;2024-01-15T02:15:33;49.73;;;17.67;;
46028;SDS011;31763;48.180;7.904;2024-01-15T02:18:02;46.37;;;15.83;;
46028;SDS011;31763;48.180;7.904;2024-01-15T02:20:32;49.00;;;17.60;;
46028;SDS011;31763;48.180;7.904;2024-01-15T02:25:40;30.93;;;12.83;;
46028;SDS011;31763;48.180;7.904;2024-01-15T02:28:10;51.37;;;17.20;;
46028;SDS011;31763;48.180;7.904;2024-01-15T02:30:39;47.27;;;15.73;;
46028;SDS011;31763;48.180;7.904;2024-01-15T02:33:08;45.47;;;16.10;;
46028;SDS011;31763;48.180;7.904;2024-01-15T02:35:37;48.37;;;16.33;;
46028;SDS011;31763;48.180;7.904;2024-01-15T02:38:07;48.90;;;16.90;;
46028;SDS011;31763;48.180;7.904;2024-01-15T02:40:34;26.80;;;8.40;;
46028;SDS011;31763;48.180;7.904;2024-01-15T02:43:02;21.87;;;9.57;;
46028;SDS011;31763;48.180;7.904;2024-01-15T02:45:29;38.77;;;13.97;;
46028;SDS011;31763;48.180;7.904;2024-01-15T02:47:56;46.10;;;14.80;;
46028;SDS011;31763;48.180;7.904;2024-01-15T02:50:23;45.90;;;16.10;;
46028;SDS011;31763;48.180;7.904;2024-01-15T02:52:50;43.87;;;13.77;;
46028;SDS011;31763;48.180;7.904;2024-01-15T02:55:17;49.33;;;18.77;;
46028;SDS011;31763;48.180;7.904;2024-01-15T02:57:44;53.77;;;20.07;;
46028;SDS011;31763;48.180;7.904;2024-01-15T03:00:11;33.47;;;12.83;;
46028;SDS011;31763;48.180;7.904;2024-01-15T03:02:39;50.07;;;17.97;;
46028;SDS011;31763;48.180;7.904;2024-01-15T03:05:11;52.33;;;16.83;;
46028;SDS011;31763;48.180;7.904;2024-01-15T03:07:38;51.93;;;16.77;;
46028;SDS011;31763;48.180;7.904;2024-01-15T03:10:05;51.23;;;18.10;;
46028;SDS011;31763;48.180;7.904;2024-01-15T03:12:33;60.10;;;21.17;;
46028;SDS011;31763;48.180;7.904;2024-01-15T03:15:00;52.20;;;20.60;;
46028;SDS011;31763;48.180;7.904;2024-01-15T03:17:27;42.37;;;14.53;;
46028;SDS011;31763;48.180;7.904;2024-01-15T03:19:54;60.07;;;18.27;;
46028;SDS011;31763;48.180;7.904;2024-01-15T03:22:21;50.63;;;18.60;;
46028;SDS011;31763;48.180;7.904;2024-01-15T03:24:48;42.47;;;14.27;;
46028;SDS011;31763;48.180;7.904;2024-01-15T03:27:15;45.60;;;13.67;;
46028;SDS011;31763;48.180;7.904;2024-01-15T03:29:42;56.50;;;19.13;;
46028;SDS011;31763;48.180;7.904;2024-01-15T03:32:09;56.87;;;18.90;;
46028;SDS011;31763;48.180;7.904;2024-01-15T03:34:36;38.03;;;13.27;;
46028;SDS011;31763;48.180;7.904;2024-01-15T03:37:03;48.80;;;15.33;;
46028;SDS011;31763;48.180;7.904;2024-01-15T03:39:30;55.40;;;19.40;;
46028;SDS011;31763;48.180;7.904;2024-01-15T03:41:57;34.47;;;12.10;;
46028;SDS011;31763;48.180;7.904;2024-01-15T03:44:24;69.33;;;23.57;;
46028;SDS011;31763;48.180;7.904;2024-01-15T03:46:51;56.77;;;18.90;;
46028;SDS011;31763;48.180;7.904;2024-01-15T03:49:18;55.27;;;15.67;;
46028;SDS011;31763;48.180;7.904;2024-01-15T03:51:45;52.37;;;18.77;;
46028;SDS011;31763;48.180;7.904;2024-01-15T03:54:12;62.53;;;21.13;;
46028;SDS011;31763;48.180;7.904;2024-01-15T03:56:39;57.00;;;17.37;;
46028;SDS011;31763;48.180;7.904;2024-01-15T03:59:06;54.03;;;16.50;;
46028;SDS011;31763;48.180;7.904;2024-01-15T04:01:33;41.97;;;14.13;;
46028;SDS011;31763;48.180;7.904;2024-01-15T04:04:00;61.67;;;17.83;;
46028;SDS011;31763;48.180;7.904;2024-01-15T04:06:27;59.20;;;18.17;;
46028;SDS011;31763;48.180;7.904;2024-01-15T04:08:54;47.67;;;15.30;;
46028;SDS011;31763;48.180;7.904;2024-01-15T04:11:21;49.30;;;14.97;;
46028;SDS011;31763;48.180;7.904;2024-01-15T04:13:48;52.33;;;17.80;;
46028;SDS011;31763;48.180;7.904;2024-01-15T04:16:16;44.50;;;16.37;;
46028;SDS011;31763;48.180;7.904;2024-01-15T04:18:43;31.87;;;12.80;;
46028;SDS011;31763;48.180;7.904;2024-01-15T04:21:10;53.13;;;18.07;;
46028;SDS011;31763;48.180;7.904;2024-01-15T04:23:37;63.50;;;18.70;;
46028;SDS011;31763;48.180;7.904;2024-01-15T04:26:05;36.90;;;15.67;;
46028;SDS011;31763;48.180;7.904;2024-01-15T04:28:32;70.77;;;21.47;;
46028;SDS011;31763;48.180;7.904;2024-01-15T04:30:59;63.23;;;18.13;;
46028;SDS011;31763;48.180;7.904;2024-01-15T04:33:26;79.60;;;23.37;;
46028;SDS011;31763;48.180;7.904;2024-01-15T04:35:53;70.60;;;22.53;;
46028;SDS011;31763;48.180;7.904;2024-01-15T04:38:20;67.97;;;22.33;;
46028;SDS011;31763;48.180;7.904;2024-01-15T04:40:46;66.30;;;20.50;;
46028;SDS011;31763;48.180;7.904;2024-01-15T04:43:13;69.70;;;23.73;;
46028;SDS011;31763;48.180;7.904;2024-01-15T04:45:40;78.93;;;25.17;;
46028;SDS011;31763;48.180;7.904;2024-01-15T04:48:07;68.37;;;24.07;;
46028;SDS011;31763;48.180;7.904;2024-01-15T04:50:34;71.17;;;24.93;;
46028;SDS011;31763;48.180;7.904;2024-01-15T04:53:01;64.53;;;20.60;;
46028;SDS011;31763;48.180;7.904;2024-01-15T04:55:28;51.17;;;18.33;;
46028;SDS011;31763;48.180;7.904;2024-01-15T04:57:55;69.50;;;23.13;;
46028;SDS011;31763;48.180;7.904;2024-01-15T05:00:22;70.37;;;23.87;;
46028;SDS011;31763;48.180;7.904;2024-01-15T05:02:49;65.90;;;24.30;;
46028;SDS011;31763;48.180;7.904;2024-01-15T05:05:16;68.33;;;22.07;;
46028;SDS011;31763;48.180;7.904;2024-01-15T05:07:43;71.23;;;21.93;;
46028;SDS011;31763;48.180;7.904;2024-01-15T05:10:10;75.20;;;25.03;;
46028;SDS011;31763;48.180;7.904;2024-01-15T05:15:04;68.67;;;20.50;;
46028;SDS011;31763;48.180;7.904;2024-01-15T05:17:32;61.83;;;20.90;;
46028;SDS011;31763;48.180;7.904;2024-01-15T05:19:58;70.90;;;22.33;;
46028;SDS011;31763;48.180;7.904;2024-01-15T05:22:26;59.23;;;18.90;;
46028;SDS011;31763;48.180;7.904;2024-01-15T05:24:53;71.87;;;21.33;;
46028;SDS011;31763;48.180;7.904;2024-01-15T05:27:20;61.80;;;18.53;;
46028;SDS011;31763;48.180;7.904;2024-01-15T05:29:46;65.70;;;22.00;;
46028;SDS011;31763;48.180;7.904;2024-01-15T05:32:13;69.03;;;23.57;;
46028;SDS011;31763;48.180;7.904;2024-01-15T05:34:40;75.53;;;25.40;;
46028;SDS011;31763;48.180;7.904;2024-01-15T05:37:07;54.27;;;20.03;;
46028;SDS011;31763;48.180;7.904;2024-01-15T05:39:34;79.23;;;28.03;;
46028;SDS011;31763;48.180;7.904;2024-01-15T05:42:01;45.27;;;15.17;;
46028;SDS011;31763;48.180;7.904;2024-01-15T05:44:28;35.53;;;12.90;;
46028;SDS011;31763;48.180;7.904;2024-01-15T05:46:55;76.67;;;24.37;;
46028;SDS011;31763;48.180;7.904;2024-01-15T05:49:22;62.33;;;19.90;;
46028;SDS011;31763;48.180;7.904;2024-01-15T05:51:49;53.27;;;17.03;;
46028;SDS011;31763;48.180;7.904;2024-01-15T05:54:17;45.73;;;14.10;;
46028;SDS011;31763;48.180;7.904;2024-01-15T05:56:46;72.37;;;24.90;;
46028;SDS011;31763;48.180;7.904;2024-01-15T05:59:12;62.37;;;21.30;;
46028;SDS011;31763;48.180;7.904;2024-01-15T06:01:41;63.83;;;19.73;;
46028;SDS011;31763;48.180;7.904;2024-01-15T06:04:08;59.80;;;19.30;;
46028;SDS011;31763;48.180;7.904;2024-01-15T06:06:35;59.73;;;20.17;;
46028;SDS011;31763;48.180;7.904;2024-01-15T06:09:02;50.87;;;16.83;;
46028;SDS011;31763;48.180;7.904;2024-01-15T06:11:31;50.00;;;14.70;;
46028;SDS011;31763;48.180;7.904;2024-01-15T06:13:59;67.40;;;20.60;;
46028;SDS011;31763;48.180;7.904;2024-01-15T06:16:29;66.23;;;22.57;;
46028;SDS011;31763;48.180;7.904;2024-01-15T06:18:56;69.53;;;23.77;;
46028;SDS011;31763;48.180;7.904;2024-01-15T06:21:23;61.93;;;21.23;;
46028;SDS011;31763;48.180;7.904;2024-01-15T06:23:50;63.93;;;21.63;;
46028;SDS011;31763;48.180;7.904;2024-01-15T06:26:17;62.73;;;23.20;;
46028;SDS011;31763;48.180;7.904;2024-01-15T06:28:43;63.33;;;20.43;;
46028;SDS011;31763;48.180;7.904;2024-01-15T06:31:10;55.63;;;19.67;;
46028;SDS011;31763;48.180;7.904;2024-01-15T06:33:37;63.03;;;22.77;;
46028;SDS011;31763;48.180;7.904;2024-01-15T06:36:05;61.53;;;21.07;;
46028;SDS011;31763;48.180;7.904;2024-01-15T06:38:33;72.40;;;23.47;;
46028;SDS011;31763;48.180;7.904;2024-01-15T06:41:00;75.13;;;23.67;;
46028;SDS011;31763;48.180;7.904;2024-01-15T06:43:27;62.57;;;21.37;;
46028;SDS011;31763;48.180;7.904;2024-01-15T06:45:54;68.43;;;19.67;;
46028;SDS011;31763;48.180;7.904;2024-01-15T06:48:21;50.50;;;15.83;;
46028;SDS011;31763;48.180;7.904;2024-01-15T06:50:48;51.97;;;20.00;;
46028;SDS011;31763;48.180;7.904;2024-01-15T06:53:15;57.27;;;18.83;;
46028;SDS011;31763;48.180;7.904;2024-01-15T06:55:42;53.73;;;17.97;;
46028;SDS011;31763;48.180;7.904;2024-01-15T06:58:09;46.10;;;16.83;;
46028;SDS011;31763;48.180;7.904;2024-01-15T07:00:36;41.07;;;15.40;;
46028;SDS011;31763;48.180;7.904;2024-01-15T07:03:04;61.77;;;19.77;;
46028;SDS011;31763;48.180;7.904;2024-01-15T07:05:31;58.47;;;17.63;;
46028;SDS011;31763;48.180;7.904;2024-01-15T07:07:58;62.77;;;21.73;;
46028;SDS011;31763;48.180;7.904;2024-01-15T07:10:25;61.33;;;20.27;;
46028;SDS011;31763;48.180;7.904;2024-01-15T07:12:52;49.27;;;14.83;;
46028;SDS011;31763;48.180;7.904;2024-01-15T07:15:20;61.77;;;20.67;;
46028;SDS011;31763;48.180;7.904;2024-01-15T07:17:47;67.03;;;20.30;;
46028;SDS011;31763;48.180;7.904;2024-01-15T07:20:14;60.73;;;18.87;;
46028;SDS011;31763;48.180;7.904;2024-01-15T07:22:41;59.77;;;19.53;;
46028;SDS011;31763;48.180;7.904;2024-01-15T07:25:08;57.00;;;20.30;;
46028;SDS011;31763;48.180;7.904;2024-01-15T07:27:35;35.30;;;12.53;;
46028;SDS011;31763;48.180;7.904;2024-01-15T07:30:02;53.27;;;19.67;;
46028;SDS011;31763;48.180;7.904;2024-01-15T07:32:31;53.00;;;15.10;;
46028;SDS011;31763;48.180;7.904;2024-01-15T07:34:58;57.40;;;18.03;;
46028;SDS011;31763;48.180;7.904;2024-01-15T07:37:25;39.00;;;14.23;;
46028;SDS011;31763;48.180;7.904;2024-01-15T07:39:52;65.40;;;20.50;;
46028;SDS011;31763;48.180;7.904;2024-01-15T07:42:19;47.77;;;13.93;;
46028;SDS011;31763;48.180;7.904;2024-01-15T07:44:46;58.00;;;18.77;;
46028;SDS011;31763;48.180;7.904;2024-01-15T07:47:13;51.33;;;17.63;;
46028;SDS011;31763;48.180;7.904;2024-01-15T07:49:40;39.13;;;12.57;;
46028;SDS011;31763;48.180;7.904;2024-01-15T07:52:07;44.43;;;16.43;;
46028;SDS011;31763;48.180;7.904;2024-01-15T07:54:34;41.83;;;14.83;;
46028;SDS011;31763;48.180;7.904;2024-01-15T07:57:02;44.47;;;14.10;;
46028;SDS011;31763;48.180;7.904;2024-01-15T07:59:29;41.57;;;14.00;;
46028;SDS011;31763;48.180;7.904;2024-01-15T08:01:58;47.73;;;15.97;;
46028;SDS011;31763;48.180;7.904;2024-01-15T08:04:26;60.27;;;19.23;;
46028;SDS011;31763;48.180;7.904;2024-01-15T08:06:53;49.93;;;18.33;;
46028;SDS011;31763;48.180;7.904;2024-01-15T08:09:20;52.13;;;18.10;;
46028;SDS011;31763;48.180;7.904;2024-01-15T08:11:47;52.43;;;18.00;;
46028;SDS011;31763;48.180;7.904;2024-01-15T08:14:15;53.37;;;17.67;;
46028;SDS011;31763;48.180;7.904;2024-01-15T08:16:43;36.73;;;11.27;;
46028;SDS011;31763;48.180;7.904;2024-01-15T08:19:10;33.07;;;13.27;;
46028;SDS011;31763;48.180;7.904;2024-01-15T08:21:38;47.07;;;17.13;;
46028;SDS011;31763;48.180;7.904;2024-01-15T08:24:05;43.43;;;15.80;;
46028;SDS011;31763;48.180;7.904;2024-01-15T08:26:32;47.33;;;15.67;;
46028;SDS011;31763;48.180;7.904;2024-01-15T08:28:59;29.90;;;10.23;;
46028;SDS011;31763;48.180;7.904;2024-01-15T08:31:26;43.00;;;14.33;;
46028;SDS011;31763;48.180;7.904;2024-01-15T08:33:54;46.10;;;15.03;;
46028;SDS011;31763;48.180;7.904;2024-01-15T08:36:22;35.90;;;11.90;;
46028;SDS011;31763;48.180;7.904;2024-01-15T08:38:51;21.50;;;9.77;;
46028;SDS011;31763;48.180;7.904;2024-01-15T08:41:17;18.93;;;8.30;;
46028;SDS011;31763;48.180;7.904;2024-01-15T08:43:44;34.07;;;11.83;;
46028;SDS011;31763;48.180;7.904;2024-01-15T08:46:11;29.23;;;13.07;;
46028;SDS011;31763;48.180;7.904;2024-01-15T08:48:38;44.93;;;15.30;;
46028;SDS011;31763;48.180;7.904;2024-01-15T08:51:06;28.37;;;11.57;;
46028;SDS011;31763;48.180;7.904;2024-01-15T08:53:34;38.67;;;14.13;;
46028;SDS011;31763;48.180;7.904;2024-01-15T08:56:01;44.53;;;16.03;;
46028;SDS011;31763;48.180;7.904;2024-01-15T08:58:28;35.30;;;12.20;;
46028;SDS011;31763;48.180;7.904;2024-01-15T09:00:55;33.97;;;9.97;;
46028;SDS011;31763;48.180;7.904;2024-01-15T09:03:22;41.23;;;15.47;;
46028;SDS011;31763;48.180;7.904;2024-01-15T09:05:49;32.67;;;12.27;;
46028;SDS011;31763;48.180;7.904;2024-01-15T09:08:17;31.70;;;12.37;;
46028;SDS011;31763;48.180;7.904;2024-01-15T09:10:44;31.17;;;10.53;;
46028;SDS011;31763;48.180;7.904;2024-01-15T09:13:12;35.87;;;12.70;;
46028;SDS011;31763;48.180;7.904;2024-01-15T09:15:39;27.07;;;11.13;;
46028;SDS011;31763;48.180;7.904;2024-01-15T09:18:06;25.13;;;9.37;;
46028;SDS011;31763;48.180;7.904;2024-01-15T09:20:34;15.73;;;6.47;;
46028;SDS011;31763;48.180;7.904;2024-01-15T09:23:01;34.33;;;10.73;;
46028;SDS011;31763;48.180;7.904;2024-01-15T09:25:29;23.07;;;7.73;;
46028;SDS011;31763;48.180;7.904;2024-01-15T09:27:55;13.13;;;5.97;;
46028;SDS011;31763;48.180;7.904;2024-01-15T09:30:23;15.67;;;6.90;;
46028;SDS011;31763;48.180;7.904;2024-01-15T09:32:50;17.60;;;6.63;;
46028;SDS011;31763;48.180;7.904;2024-01-15T09:35:17;16.57;;;6.97;;
46028;SDS011;31763;48.180;7.904;2024-01-15T09:37:46;13.60;;;7.67;;
46028;SDS011;31763;48.180;7.904;2024-01-15T09:40:14;24.93;;;11.70;;
46028;SDS011;31763;48.180;7.904;2024-01-15T09:42:42;12.90;;;5.13;;
46028;SDS011;31763;48.180;7.904;2024-01-15T09:45:10;25.40;;;9.13;;
46028;SDS011;31763;48.180;7.904;2024-01-15T09:47:38;20.53;;;8.03;;
46028;SDS011;31763;48.180;7.904;2024-01-15T09:50:11;17.70;;;8.13;;
46028;SDS011;31763;48.180;7.904;2024-01-15T09:52:43;17.40;;;7.88;;
46028;SDS011;31763;48.180;7.904;2024-01-15T09:55:11;15.30;;;7.03;;
46028;SDS011;31763;48.180;7.904;2024-01-15T09:57:41;12.07;;;5.30;;
46028;SDS011;31763;48.180;7.904;2024-01-15T10:00:10;20.77;;;8.93;;
46028;SDS011;31763;48.180;7.904;2024-01-15T10:02:38;19.07;;;9.30;;
46028;SDS011;31763;48.180;7.904;2024-01-15T10:05:05;20.10;;;9.17;;
46028;SDS011;31763;48.180;7.904;2024-01-15T10:07:33;17.27;;;7.40;;
46028;SDS011;31763;48.180;7.904;2024-01-15T10:10:03;17.17;;;8.05;;
46028;SDS011;31763;48.180;7.904;2024-01-15T10:12:30;13.80;;;5.90;;
46028;SDS011;31763;48.180;7.904;2024-01-15T10:14:58;20.17;;;7.93;;
46028;SDS011;31763;48.180;7.904;2024-01-15T10:17:25;19.43;;;8.67;;
46028;SDS011;31763;48.180;7.904;2024-01-15T10:19:54;20.57;;;8.67;;
46028;SDS011;31763;48.180;7.904;2024-01-15T10:22:21;15.13;;;6.57;;
46028;SDS011;31763;48.180;7.904;2024-01-15T10:24:49;21.67;;;8.53;;
46028;SDS011;31763;48.180;7.904;2024-01-15T10:27:17;17.20;;;8.83;;
46028;SDS011;31763;48.180;7.904;2024-01-15T10:29:44;21.30;;;9.37;;
46028;SDS011;31763;48.180;7.904;2024-01-15T10:32:11;15.90;;;8.20;;
46028;SDS011;31763;48.180;7.904;2024-01-15T10:34:38;26.93;;;9.33;;
46028;SDS011;31763;48.180;7.904;2024-01-15T10:37:08;25.70;;;9.03;;
46028;SDS011;31763;48.180;7.904;2024-01-15T10:39:35;15.10;;;7.23;;
46028;SDS011;31763;48.180;7.904;2024-01-15T10:42:04;21.87;;;9.30;;
46028;SDS011;31763;48.180;7.904;2024-01-15T10:44:32;21.77;;;10.27;;
46028;SDS011;31763;48.180;7.904;2024-01-15T10:46:59;19.80;;;8.03;;
46028;SDS011;31763;48.180;7.904;2024-01-15T10:49:26;28.50;;;10.43;;
46028;SDS011;31763;48.180;7.904;2024-01-15T10:51:59;23.43;;;9.57;;
46028;SDS011;31763;48.180;7.904;2024-01-15T10:54:30;33.13;;;11.73;;
46028;SDS011;31763;48.180;7.904;2024-01-15T10:56:58;22.23;;;9.23;;
46028;SDS011;31763;48.180;7.904;2024-01-15T10:59:25;33.23;;;12.90;;
46028;SDS011;31763;48.180;7.904;2024-01-15T11:01:52;24.50;;;9.20;;
46028;SDS011;31763;48.180;7.904;2024-01-15T11:04:21;28.83;;;11.63;;
46028;SDS011;31763;48.180;7.904;2024-01-15T11:06:52;25.60;;;10.10;;
46028;SDS011;31763;48.180;7.904;2024-01-15T11:09:22;30.10;;;13.15;;
46028;SDS011;31763;48.180;7.904;2024-01-15T11:11:52;31.53;;;11.40;;
46028;SDS011;31763;48.180;7.904;2024-01-15T11:17:06;20.30;;;6.40;;
46028;SDS011;31763;48.180;7.904;2024-01-15T11:19:52;25.80;;;8.40;;
46028;SDS011;31763;48.180;7.904;2024-01-15T11:25:02;33.07;;;13.80;;
46028;SDS011;31763;48.180;7.904;2024-01-15T11:27:44;16.50;;;6.82;;
46028;SDS011;31763;48.180;7.904;2024-01-15T11:32:51;17.10;;;7.43;;
46028;SDS011;31763;48.180;7.904;2024-01-15T11:35:18;20.70;;;8.20;;
46028;SDS011;31763;48.180;7.904;2024-01-15T11:40:21;31.80;;;11.90;;
46028;SDS011;31763;48.180;7.904;2024-01-15T11:43:04;28.87;;;11.80;;
46028;SDS011;31763;48.180;7.904;2024-01-15T11:45:36;22.10;;;8.00;;
46028;SDS011;31763;48.180;7.904;2024-01-15T11:48:16;20.17;;;9.10;;
46028;SDS011;31763;48.180;7.904;2024-01-15T11:50:49;23.17;;;8.77;;
46028;SDS011;31763;48.180;7.904;2024-01-15T11:53:33;27.13;;;8.60;;
46028;SDS011;31763;48.180;7.904;2024-01-15T11:56:16;20.37;;;10.50;;
46028;SDS011;31763;48.180;7.904;2024-01-15T11:58:43;19.20;;;8.23;;
46028;SDS011;31763;48.180;7.904;2024-01-15T12:01:11;19.03;;;7.87;;
46028;SDS011;31763;48.180;7.904;2024-01-15T12:03:38;22.53;;;8.17;;
46028;SDS011;31763;48.180;7.904;2024-01-15T12:06:06;23.33;;;10.93;;
46028;SDS011;31763;48.180;7.904;2024-01-15T12:08:33;21.83;;;9.10;;
46028;SDS011;31763;48.180;7.904;2024-01-15T12:11:04;23.53;;;9.07;;
46028;SDS011;31763;48.180;7.904;2024-01-15T12:13:37;18.80;;;7.80;;
46028;SDS011;31763;48.180;7.904;2024-01-15T12:16:04;15.27;;;6.23;;
46028;SDS011;31763;48.180;7.904;2024-01-15T12:18:31;25.97;;;9.77;;
46028;SDS011;31763;48.180;7.904;2024-01-15T12:20:58;15.43;;;6.70;;
46028;SDS011;31763;48.180;7.904;2024-01-15T12:23:25;24.23;;;9.10;;
46028;SDS011;31763;48.180;7.904;2024-01-15T12:25:54;19.03;;;7.27;;
46028;SDS011;31763;48.180;7.904;2024-01-15T12:28:21;20.20;;;7.37;;
46028;SDS011;31763;48.180;7.904;2024-01-15T12:30:49;18.40;;;8.23;;
46028;SDS011;31763;48.180;7.904;2024-01-15T12:33:17;17.13;;;7.63;;
46028;SDS011;31763;48.180;7.904;2024-01-15T12:35:45;18.67;;;8.43;;
46028;SDS011;31763;48.180;7.904;2024-01-15T12:38:11;16.13;;;7.23;;
46028;SDS011;31763;48.180;7.904;2024-01-15T12:40:38;17.10;;;7.47;;
46028;SDS011;31763;48.180;7.904;2024-01-15T12:43:05;17.77;;;7.47;;
46028;SDS011;31763;48.180;7.904;2024-01-15T12:45:33;22.67;;;9.07;;
46028;SDS011;31763;48.180;7.904;2024-01-15T12:48:02;15.63;;;7.87;;
46028;SDS011;31763;48.180;7.904;2024-01-15T12:50:30;20.70;;;10.37;;
46028;SDS011;31763;48.180;7.904;2024-01-15T12:53:00;16.87;;;7.03;;
46028;SDS011;31763;48.180;7.904;2024-01-15T12:55:27;15.23;;;5.53;;
46028;SDS011;31763;48.180;7.904;2024-01-15T12:57:54;15.77;;;6.50;;
46028;SDS011;31763;48.180;7.904;2024-01-15T13:00:22;14.33;;;6.77;;
46028;SDS011;31763;48.180;7.904;2024-01-15T13:02:49;18.17;;;8.13;;
46028;SDS011;31763;48.180;7.904;2024-01-15T13:05:16;23.07;;;9.27;;
46028;SDS011;31763;48.180;7.904;2024-01-15T13:07:44;19.93;;;10.10;;
46028;SDS011;31763;48.180;7.904;2024-01-15T13:10:11;14.80;;;7.07;;
46028;SDS011;31763;48.180;7.904;2024-01-15T13:12:39;22.03;;;8.83;;
46028;SDS011;31763;48.180;7.904;2024-01-15T13:15:07;25.53;;;11.47;;
46028;SDS011;31763;48.180;7.904;2024-01-15T13:17:40;20.60;;;8.10;;
46028;SDS011;31763;48.180;7.904;2024-01-15T13:20:09;18.80;;;7.70;;
46028;SDS011;31763;48.180;7.904;2024-01-15T13:22:37;21.97;;;9.30;;
46028;SDS011;31763;48.180;7.904;2024-01-15T13:25:06;23.07;;;9.63;;
46028;SDS011;31763;48.180;7.904;2024-01-15T13:27:34;18.40;;;8.17;;
46028;SDS011;31763;48.180;7.904;2024-01-15T13:30:02;18.43;;;8.37;;
46028;SDS011;31763;48.180;7.904;2024-01-15T13:32:31;21.17;;;8.27;;
46028;SDS011;31763;48.180;7.904;2024-01-15T13:34:58;20.80;;;9.47;;
46028;SDS011;31763;48.180;7.904;2024-01-15T13:37:26;16.57;;;7.33;;
46028;SDS011;31763;48.180;7.904;2024-01-15T13:39:53;13.27;;;5.73;;
46028;SDS011;31763;48.180;7.904;2024-01-15T13:42:21;19.37;;;8.37;;
46028;SDS011;31763;48.180;7.904;2024-01-15T13:44:49;16.07;;;8.53;;
46028;SDS011;31763;48.180;7.904;2024-01-15T13:47:16;15.00;;;6.90;;
46028;SDS011;31763;48.180;7.904;2024-01-15T13:49:43;11.63;;;4.50;;
46028;SDS011;31763;48.180;7.904;2024-01-15T13:52:10;12.33;;;5.07;;
46028;SDS011;31763;48.180;7.904;2024-01-15T13:54:37;10.00;;;5.00;;
46028;SDS011;31763;48.180;7.904;2024-01-15T13:57:15;7.73;;;3.77;;
46028;SDS011;31763;48.180;7.904;2024-01-15T13:59:44;10.77;;;5.07;;
46028;SDS011;31763;48.180;7.904;2024-01-15T14:02:11;4.40;;;2.27;;
46028;SDS011;31763;48.180;7.904;2024-01-15T14:04:41;8.23;;;2.70;;
46028;SDS011;31763;48.180;7.904;2024-01-15T14:07:08;8.13;;;4.03;;
46028;SDS011;31763;48.180;7.904;2024-01-15T14:09:34;10.73;;;4.30;;
46028;SDS011;31763;48.180;7.904;2024-01-15T14:12:04;23.83;;;10.37;;
46028;SDS011;31763;48.180;7.904;2024-01-15T14:14:32;6.13;;;3.53;;
46028;SDS011;31763;48.180;7.904;2024-01-15T14:16:59;11.17;;;5.27;;
46028;SDS011;31763;48.180;7.904;2024-01-15T14:19:26;15.60;;;6.53;;
46028;SDS011;31763;48.180;7.904;2024-01-15T14:21:54;10.80;;;5.53;;
46028;SDS011;31763;48.180;7.904;2024-01-15T14:24:21;13.93;;;5.33;;
46028;SDS011;31763;48.180;7.904;2024-01-15T14:26:48;11.60;;;5.43;;
46028;SDS011;31763;48.180;7.904;2024-01-15T14:29:15;10.80;;;4.37;;
46028;SDS011;31763;48.180;7.904;2024-01-15T14:31:44;12.13;;;5.37;;
46028;SDS011;31763;48.180;7.904;2024-01-15T14:34:12;10.40;;;4.53;;
46028;SDS011;31763;48.180;7.904;2024-01-15T14:36:40;12.50;;;4.70;;
46028;SDS011;31763;48.180;7.904;2024-01-15T14:39:07;10.90;;;4.90;;
46028;SDS011;31763;48.180;7.904;2024-01-15T14:41:35;10.57;;;4.60;;
46028;SDS011;31763;48.180;7.904;2024-01-15T14:44:02;37.57;;;14.57;;